sensor_id;sensor_type;location;lat;lon;timestamp;P1;durP1;ratioP1;P2;durP2;ratioP2
62151;SDS011;48139;47.474;19.034;2022-07-29T03:44:53;8.23;;;4.50;;
62151;SDS011;48139;47.474;19.034;2022-07-29T03:48:02;8.75;;;4.75;;
62151;SDS011;48139;47.474;19.034;2022-07-29T03:51:10;9.05;;;5.10;;
62151;SDS011;48139;47.474;19.034;2022-07-29T03:54:13;6.60;;;3.92;;
62151;SDS011;48139;47.474;19.034;2022-07-29T03:57:16;8.95;;;4.55;;
62151;SDS011;48139;47.474;19.034;2022-07-29T04:00:24;7.32;;;4.87;;
62151;SDS011;48139;47.474;19.034;2022-07-29T04:03:28;7.12;;;4.53;;
62151;SDS011;48139;47.474;19.034;2022-07-29T04:06:38;9.80;;;5.65;;
62151;SDS011;48139;47.474;19.034;2022-07-29T04:09:42;7.90;;;4.30;;
62151;SDS011;48139;47.474;19.034;2022-07-29T04:15:48;6.32;;;4.45;;
62151;SDS011;48139;47.474;19.034;2022-07-29T04:18:51;6.70;;;4.10;;
62151;SDS011;48139;47.474;19.034;2022-07-29T04:21:54;6.93;;;3.60;;
62151;SDS011;48139;47.474;19.034;2022-07-29T04:24:56;8.45;;;4.87;;
62151;SDS011;48139;47.474;19.034;2022-07-29T04:28:05;6.93;;;4.37;;
62151;SDS011;48139;47.474;19.034;2022-07-29T04:31:09;8.82;;;4.53;;
62151;SDS011;48139;47.474;19.034;2022-07-29T04:34:12;7.85;;;4.80;;
62151;SDS011;48139;47.474;19.034;2022-07-29T04:40:19;8.45;;;4.50;;
62151;SDS011;48139;47.474;19.034;2022-07-29T04:43:21;5.78;;;4.05;;
62151;SDS011;48139;47.474;19.034;2022-07-29T04:46:24;5.35;;;3.65;;
62151;SDS011;48139;47.474;19.034;2022-07-29T04:49:27;10.43;;;3.97;;
62151;SDS011;48139;47.474;19.034;2022-07-29T04:52:30;5.25;;;3.55;;
62151;SDS011;48139;47.474;19.034;2022-07-29T04:55:32;12.07;;;4.55;;
62151;SDS011;48139;47.474;19.034;2022-07-29T04:58:36;6.28;;;4.37;;
62151;SDS011;48139;47.474;19.034;2022-07-29T05:01:38;7.80;;;5.87;;
62151;SDS011;48139;47.474;19.034;2022-07-29T05:04:44;8.00;;;3.92;;
62151;SDS011;48139;47.474;19.034;2022-07-29T05:07:47;7.50;;;4.32;;
62151;SDS011;48139;47.474;19.034;2022-07-29T05:10:49;7.68;;;4.25;;
62151;SDS011;48139;47.474;19.034;2022-07-29T05:13:52;10.68;;;5.60;;
62151;SDS011;48139;47.474;19.034;2022-07-29T05:16:54;7.12;;;4.22;;
62151;SDS011;48139;47.474;19.034;2022-07-29T05:19:59;12.43;;;4.22;;
62151;SDS011;48139;47.474;19.034;2022-07-29T05:26:04;8.00;;;4.40;;
62151;SDS011;48139;47.474;19.034;2022-07-29T05:29:07;8.70;;;5.32;;
62151;SDS011;48139;47.474;19.034;2022-07-29T05:32:30;6.93;;;4.72;;
62151;SDS011;48139;47.474;19.034;2022-07-29T05:35:34;9.98;;;4.43;;
62151;SDS011;48139;47.474;19.034;2022-07-29T05:41:39;7.33;;;4.47;;
62151;SDS011;48139;47.474;19.034;2022-07-29T05:44:43;7.72;;;5.00;;
62151;SDS011;48139;47.474;19.034;2022-07-29T05:47:45;8.43;;;5.37;;
62151;SDS011;48139;47.474;19.034;2022-07-29T05:50:48;7.90;;;4.57;;
62151;SDS011;48139;47.474;19.034;2022-07-29T05:53:51;7.37;;;4.53;;
62151;SDS011;48139;47.474;19.034;2022-07-29T05:56:53;12.18;;;5.32;;
62151;SDS011;48139;47.474;19.034;2022-07-29T05:59:56;7.50;;;4.78;;
62151;SDS011;48139;47.474;19.034;2022-07-29T06:02:58;8.73;;;4.68;;
62151;SDS011;48139;47.474;19.034;2022-07-29T06:06:01;6.53;;;4.35;;
62151;SDS011;48139;47.474;19.034;2022-07-29T06:09:03;7.97;;;4.95;;
62151;SDS011;48139;47.474;19.034;2022-07-29T06:12:14;8.13;;;5.35;;
62151;SDS011;48139;47.474;19.034;2022-07-29T06:15:16;11.07;;;6.28;;
62151;SDS011;48139;47.474;19.034;2022-07-29T06:18:19;6.93;;;4.50;;
62151;SDS011;48139;47.474;19.034;2022-07-29T06:21:25;9.27;;;5.18;;
62151;SDS011;48139;47.474;19.034;2022-07-29T06:24:28;15.13;;;5.43;;
62151;SDS011;48139;47.474;19.034;2022-07-29T06:27:31;8.13;;;5.07;;
62151;SDS011;48139;47.474;19.034;2022-07-29T06:30:33;9.43;;;5.00;;
62151;SDS011;48139;47.474;19.034;2022-07-29T06:33:36;8.10;;;4.90;;
62151;SDS011;48139;47.474;19.034;2022-07-29T06:36:38;8.52;;;5.15;;
62151;SDS011;48139;47.474;19.034;2022-07-29T06:39:42;9.52;;;5.60;;
62151;SDS011;48139;47.474;19.034;2022-07-29T06:42:44;10.65;;;4.87;;
62151;SDS011;48139;47.474;19.034;2022-07-29T06:45:47;10.32;;;4.47;;
62151;SDS011;48139;47.474;19.034;2022-07-29T06:48:50;7.97;;;5.55;;
62151;SDS011;48139;47.474;19.034;2022-07-29T06:51:54;7.93;;;4.55;;
62151;SDS011;48139;47.474;19.034;2022-07-29T06:54:57;7.65;;;5.03;;
62151;SDS011;48139;47.474;19.034;2022-07-29T06:58:00;12.63;;;5.37;;
62151;SDS011;48139;47.474;19.034;2022-07-29T07:01:03;12.00;;;5.05;;
62151;SDS011;48139;47.474;19.034;2022-07-29T07:04:07;8.27;;;4.20;;
62151;SDS011;48139;47.474;19.034;2022-07-29T07:07:11;12.25;;;5.68;;
62151;SDS011;48139;47.474;19.034;2022-07-29T07:13:17;6.65;;;4.37;;
62151;SDS011;48139;47.474;19.034;2022-07-29T07:16:19;7.85;;;4.85;;
62151;SDS011;48139;47.474;19.034;2022-07-29T07:19:22;7.15;;;4.53;;
62151;SDS011;48139;47.474;19.034;2022-07-29T07:25:27;11.00;;;5.25;;
62151;SDS011;48139;47.474;19.034;2022-07-29T07:28:30;7.00;;;4.78;;
62151;SDS011;48139;47.474;19.034;2022-07-29T07:31:33;11.07;;;4.87;;
62151;SDS011;48139;47.474;19.034;2022-07-29T07:34:35;10.43;;;4.85;;
62151;SDS011;48139;47.474;19.034;2022-07-29T07:37:40;8.02;;;5.50;;
62151;SDS011;48139;47.474;19.034;2022-07-29T07:40:42;10.48;;;4.90;;
62151;SDS011;48139;47.474;19.034;2022-07-29T07:46:47;9.63;;;5.00;;
62151;SDS011;48139;47.474;19.034;2022-07-29T07:52:53;8.30;;;5.23;;
62151;SDS011;48139;47.474;19.034;2022-07-29T07:55:59;8.85;;;5.95;;
62151;SDS011;48139;47.474;19.034;2022-07-29T07:59:12;8.63;;;5.18;;
62151;SDS011;48139;47.474;19.034;2022-07-29T08:02:15;7.10;;;4.75;;
62151;SDS011;48139;47.474;19.034;2022-07-29T08:05:18;10.27;;;5.25;;
62151;SDS011;48139;47.474;19.034;2022-07-29T08:08:20;6.60;;;4.12;;
62151;SDS011;48139;47.474;19.034;2022-07-29T08:11:23;8.75;;;5.30;;
62151;SDS011;48139;47.474;19.034;2022-07-29T08:14:25;10.32;;;4.75;;
62151;SDS011;48139;47.474;19.034;2022-07-29T08:20:36;7.60;;;5.40;;
62151;SDS011;48139;47.474;19.034;2022-07-29T08:23:41;9.45;;;4.93;;
62151;SDS011;48139;47.474;19.034;2022-07-29T08:26:59;9.88;;;6.03;;
62151;SDS011;48139;47.474;19.034;2022-07-29T08:30:02;9.98;;;5.07;;
62151;SDS011;48139;47.474;19.034;2022-07-29T08:33:05;7.12;;;4.65;;
62151;SDS011;48139;47.474;19.034;2022-07-29T08:36:08;9.50;;;5.05;;
62151;SDS011;48139;47.474;19.034;2022-07-29T08:39:11;8.05;;;4.85;;
62151;SDS011;48139;47.474;19.034;2022-07-29T08:42:14;8.75;;;5.28;;
62151;SDS011;48139;47.474;19.034;2022-07-29T08:45:18;8.13;;;5.00;;
62151;SDS011;48139;47.474;19.034;2022-07-29T08:48:22;8.85;;;5.30;;
62151;SDS011;48139;47.474;19.034;2022-07-29T08:51:25;8.73;;;5.30;;
62151;SDS011;48139;47.474;19.034;2022-07-29T08:54:29;7.90;;;4.97;;
62151;SDS011;48139;47.474;19.034;2022-07-29T08:57:33;8.60;;;5.62;;
62151;SDS011;48139;47.474;19.034;2022-07-29T09:00:41;9.48;;;4.85;;
62151;SDS011;48139;47.474;19.034;2022-07-29T09:03:46;6.62;;;4.65;;
62151;SDS011;48139;47.474;19.034;2022-07-29T09:06:49;13.18;;;5.55;;
62151;SDS011;48139;47.474;19.034;2022-07-29T09:09:54;10.27;;;5.25;;
62151;SDS011;48139;47.474;19.034;2022-07-29T09:12:57;7.60;;;5.20;;
62151;SDS011;48139;47.474;19.034;2022-07-29T09:16:00;6.20;;;4.57;;
62151;SDS011;48139;47.474;19.034;2022-07-29T09:19:19;10.27;;;5.45;;
62151;SDS011;48139;47.474;19.034;2022-07-29T09:22:28;9.05;;;4.22;;
62151;SDS011;48139;47.474;19.034;2022-07-29T09:28:41;9.68;;;5.57;;
62151;SDS011;48139;47.474;19.034;2022-07-29T09:31:47;8.05;;;4.80;;
62151;SDS011;48139;47.474;19.034;2022-07-29T09:34:51;6.75;;;4.55;;
62151;SDS011;48139;47.474;19.034;2022-07-29T09:41:29;9.05;;;4.62;;
62151;SDS011;48139;47.474;19.034;2022-07-29T09:47:46;7.40;;;4.90;;
62151;SDS011;48139;47.474;19.034;2022-07-29T09:50:51;6.53;;;3.75;;
62151;SDS011;48139;47.474;19.034;2022-07-29T09:53:54;7.72;;;4.50;;
62151;SDS011;48139;47.474;19.034;2022-07-29T09:56:57;10.75;;;4.60;;
62151;SDS011;48139;47.474;19.034;2022-07-29T10:00:00;7.60;;;4.68;;
62151;SDS011;48139;47.474;19.034;2022-07-29T10:03:13;7.65;;;4.25;;
62151;SDS011;48139;47.474;19.034;2022-07-29T10:06:18;5.97;;;3.90;;
62151;SDS011;48139;47.474;19.034;2022-07-29T10:09:20;7.95;;;4.40;;
62151;SDS011;48139;47.474;19.034;2022-07-29T10:12:23;6.05;;;3.90;;
62151;SDS011;48139;47.474;19.034;2022-07-29T10:15:27;5.80;;;3.60;;
62151;SDS011;48139;47.474;19.034;2022-07-29T10:18:32;6.47;;;3.70;;
62151;SDS011;48139;47.474;19.034;2022-07-29T10:21:35;9.05;;;4.28;;
62151;SDS011;48139;47.474;19.034;2022-07-29T10:24:40;5.35;;;3.33;;
62151;SDS011;48139;47.474;19.034;2022-07-29T10:27:43;6.47;;;4.45;;
62151;SDS011;48139;47.474;19.034;2022-07-29T10:30:50;6.00;;;3.83;;
62151;SDS011;48139;47.474;19.034;2022-07-29T10:34:09;8.73;;;3.87;;
62151;SDS011;48139;47.474;19.034;2022-07-29T10:37:41;5.55;;;3.25;;
62151;SDS011;48139;47.474;19.034;2022-07-29T10:44:40;7.32;;;3.50;;
62151;SDS011;48139;47.474;19.034;2022-07-29T10:47:44;6.15;;;3.85;;
62151;SDS011;48139;47.474;19.034;2022-07-29T10:51:03;7.07;;;3.67;;
62151;SDS011;48139;47.474;19.034;2022-07-29T10:54:08;8.68;;;3.75;;
62151;SDS011;48139;47.474;19.034;2022-07-29T11:00:51;5.72;;;3.85;;
62151;SDS011;48139;47.474;19.034;2022-07-29T11:03:55;5.40;;;3.60;;
62151;SDS011;48139;47.474;19.034;2022-07-29T11:16:59;5.20;;;3.10;;
62151;SDS011;48139;47.474;19.034;2022-07-29T11:23:39;8.57;;;3.40;;
62151;SDS011;48139;47.474;19.034;2022-07-29T11:27:05;6.32;;;3.65;;
62151;SDS011;48139;47.474;19.034;2022-07-29T11:30:20;6.28;;;3.78;;
62151;SDS011;48139;47.474;19.034;2022-07-29T11:33:27;6.10;;;3.78;;
62151;SDS011;48139;47.474;19.034;2022-07-29T11:40:12;5.57;;;3.55;;
62151;SDS011;48139;47.474;19.034;2022-07-29T11:43:40;6.62;;;3.62;;
62151;SDS011;48139;47.474;19.034;2022-07-29T11:47:19;8.33;;;3.33;;
62151;SDS011;48139;47.474;19.034;2022-07-29T11:50:29;5.07;;;3.08;;
62151;SDS011;48139;47.474;19.034;2022-07-29T11:53:38;6.25;;;3.85;;
62151;SDS011;48139;47.474;19.034;2022-07-29T11:56:41;12.70;;;3.97;;
62151;SDS011;48139;47.474;19.034;2022-07-29T11:59:47;5.75;;;3.47;;
62151;SDS011;48139;47.474;19.034;2022-07-29T12:02:52;5.40;;;3.70;;
62151;SDS011;48139;47.474;19.034;2022-07-29T12:05:55;7.53;;;3.67;;
62151;SDS011;48139;47.474;19.034;2022-07-29T12:08:58;5.03;;;3.20;;
62151;SDS011;48139;47.474;19.034;2022-07-29T12:12:01;5.25;;;3.20;;
62151;SDS011;48139;47.474;19.034;2022-07-29T12:15:16;6.28;;;3.92;;
62151;SDS011;48139;47.474;19.034;2022-07-29T12:18:23;6.68;;;3.30;;
62151;SDS011;48139;47.474;19.034;2022-07-29T12:21:26;5.00;;;3.08;;
62151;SDS011;48139;47.474;19.034;2022-07-29T12:24:42;7.50;;;4.05;;
62151;SDS011;48139;47.474;19.034;2022-07-29T12:27:46;9.77;;;3.80;;
62151;SDS011;48139;47.474;19.034;2022-07-29T12:30:49;9.20;;;3.50;;
62151;SDS011;48139;47.474;19.034;2022-07-29T12:33:53;6.47;;;3.58;;
62151;SDS011;48139;47.474;19.034;2022-07-29T12:36:58;8.20;;;4.05;;
62151;SDS011;48139;47.474;19.034;2022-07-29T12:40:03;11.55;;;3.75;;
62151;SDS011;48139;47.474;19.034;2022-07-29T12:43:11;11.52;;;4.00;;
62151;SDS011;48139;47.474;19.034;2022-07-29T12:46:19;6.53;;;3.93;;
62151;SDS011;48139;47.474;19.034;2022-07-29T12:49:22;6.43;;;3.67;;
62151;SDS011;48139;47.474;19.034;2022-07-29T12:55:43;6.70;;;3.60;;
62151;SDS011;48139;47.474;19.034;2022-07-29T12:58:50;7.18;;;3.92;;
62151;SDS011;48139;47.474;19.034;2022-07-29T13:01:54;6.25;;;3.80;;
62151;SDS011;48139;47.474;19.034;2022-07-29T13:04:57;5.60;;;3.50;;
62151;SDS011;48139;47.474;19.034;2022-07-29T13:08:15;6.93;;;3.50;;
62151;SDS011;48139;47.474;19.034;2022-07-29T13:11:37;7.80;;;4.57;;
62151;SDS011;48139;47.474;19.034;2022-07-29T13:14:48;6.85;;;3.47;;
62151;SDS011;48139;47.474;19.034;2022-07-29T13:17:52;7.30;;;4.07;;
62151;SDS011;48139;47.474;19.034;2022-07-29T13:20:55;7.95;;;3.35;;
62151;SDS011;48139;47.474;19.034;2022-07-29T13:23:58;5.97;;;3.75;;
62151;SDS011;48139;47.474;19.034;2022-07-29T13:27:01;5.78;;;2.85;;
62151;SDS011;48139;47.474;19.034;2022-07-29T13:30:09;5.85;;;3.95;;
62151;SDS011;48139;47.474;19.034;2022-07-29T13:33:12;5.35;;;3.50;;
62151;SDS011;48139;47.474;19.034;2022-07-29T13:36:16;6.43;;;3.80;;
